Terminal Aerodrome Forecast
Issued by NWS Central Illinois

Home | Current Version | Previous Version | Text Only | Print | Product List | Glossary On
Versions: 1 2 3 4 5 6 7 8 9 10 11 12 13 14 15 16 17 18 19 20 21 22 23
826
FTUS43 KILX 271143
TAFSPI
TAF
KSPI 271143Z 2712/2812 VRB04KT 5SM BR BKN120
     FM271500 10010KT 3SM -SHRA BR VCTS SCT006CB OVC060
     FM271700 09009KT 2SM -TSRA BR BKN006CB
     FM272100 06008KT P6SM -SHRA OVC012
     FM280100 02009KT P6SM OVC035
     FM280600 01008KT P6SM OVC012=

USA.gov is the U.S. government's official web portal to all federal, state and local government web resources and services.